Time;durP1;ratioP1;P1;durP2;ratioP2;P2;SDS_P1;SDS_P2;PMS_P1;PMS_P2;Temp;Humidity;BMP_temperature;BMP_pressure;BME280_temperature;BME280_humidity;BME280_pressure;Samples;Min_cycle;Max_cycle;Signal;HPM_P1;HPM_P2
2022/07/03 00:02:26;;;;;;;4.47;2.47;;;;;;;;;;4938220;29;20198;-63
2022/07/03 00:04:52;;;;;;;4.07;2.63;;;;;;;;;;4955510;29;20273;-62
2022/07/03 00:07:18;;;;;;;8.40;2.95;;;;;;;;;;4954906;28;20189;-63
2022/07/03 00:09:45;;;;;;;5.78;2.67;;;;;;;;;;4937258;29;20230;-62
2022/07/03 00:12:11;;;;;;;9.68;2.90;;;;;;;;;;4954925;29;20187;-62
2022/07/03 00:14:38;;;;;;;6.47;3.00;;;;;;;;;;4955233;29;20218;-62
2022/07/03 00:17:04;;;;;;;9.18;2.72;;;;;;;;;;4954910;28;20211;-62
2022/07/03 00:19:30;;;;;;;10.45;2.92;;;;;;;;;;4955300;29;20647;-63
2022/07/03 00:21:57;;;;;;;5.28;2.70;;;;;;;;;;4955207;29;20182;-63
2022/07/03 00:24:25;;;;;;;4.63;2.47;;;;;;;;;;4955142;29;20242;-63
2022/07/03 00:26:53;;;;;;;3.55;2.72;;;;;;;;;;4954923;29;20198;-63
2022/07/03 00:29:21;;;;;;;5.15;2.58;;;;;;;;;;4921499;29;20233;-64
2022/07/03 00:31:48;;;;;;;4.80;2.22;;;;;;;;;;4954979;28;20179;-62
2022/07/03 00:34:16;;;;;;;5.80;2.50;;;;;;;;;;4954794;29;20368;-62
2022/07/03 00:36:45;;;;;;;9.25;2.38;;;;;;;;;;4954800;29;20543;-62
2022/07/03 00:39:11;;;;;;;6.28;2.55;;;;;;;;;;4953648;28;20178;-63
2022/07/03 00:41:37;;;;;;;4.65;2.42;;;;;;;;;;4954590;29;20198;-62
2022/07/03 00:44:04;;;;;;;8.35;2.50;;;;;;;;;;4954003;28;20561;-62
2022/07/03 00:46:30;;;;;;;3.90;2.47;;;;;;;;;;4939214;29;20733;-63
2022/07/03 00:48:57;;;;;;;3.75;2.13;;;;;;;;;;4953804;28;20223;-62
2022/07/03 00:51:25;;;;;;;4.57;2.50;;;;;;;;;;4954394;29;20186;-62
2022/07/03 00:53:52;;;;;;;3.60;2.20;;;;;;;;;;4954651;29;20277;-63
2022/07/03 00:56:24;;;;;;;4.53;2.08;;;;;;;;;;4954717;29;20787;-62
2022/07/03 00:58:53;;;;;;;5.82;2.33;;;;;;;;;;4953750;28;20635;-62
2022/07/03 01:01:19;;;;;;;6.35;2.10;;;;;;;;;;4954434;29;20265;-63
2022/07/03 01:03:46;;;;;;;5.15;2.17;;;;;;;;;;4954676;29;20676;-62
2022/07/03 01:06:16;;;;;;;3.88;2.10;;;;;;;;;;4954342;29;20182;-62
2022/07/03 01:08:53;;;;;;;4.85;2.00;;;;;;;;;;4952855;28;20642;-62
2022/07/03 01:11:22;;;;;;;5.95;2.20;;;;;;;;;;4953091;28;20234;-62
2022/07/03 01:13:48;;;;;;;6.20;1.92;;;;;;;;;;4937509;29;20232;-62
2022/07/03 01:16:22;;;;;;;7.05;2.08;;;;;;;;;;4936909;29;20190;-62
2022/07/03 01:18:55;;;;;;;8.25;1.73;;;;;;;;;;4953286;28;20208;-61
2022/07/03 01:21:24;;;;;;;3.67;1.65;;;;;;;;;;4954295;29;20217;-61
2022/07/03 01:24:18;;;;;;;3.05;1.70;;;;;;;;;;4954597;29;20299;-61
2022/07/03 01:26:46;;;;;;;5.85;1.95;;;;;;;;;;4951040;28;20309;-61
2022/07/03 01:29:14;;;;;;;3.58;1.80;;;;;;;;;;4954595;29;20183;-63
2022/07/03 01:31:42;;;;;;;4.18;1.52;;;;;;;;;;4954264;29;20178;-62
2022/07/03 01:34:16;;;;;;;4.15;1.58;;;;;;;;;;4937393;29;20627;-62
2022/07/03 01:36:43;;;;;;;3.83;1.80;;;;;;;;;;4954039;28;20171;-62
2022/07/03 01:39:11;;;;;;;6.25;1.30;;;;;;;;;;4953355;29;20194;-61
2022/07/03 01:41:38;;;;;;;3.42;1.40;;;;;;;;;;4937111;29;20183;-61
2022/07/03 01:44:06;;;;;;;2.05;1.50;;;;;;;;;;4936797;29;20557;-61
2022/07/03 01:46:33;;;;;;;3.67;1.30;;;;;;;;;;4954331;29;20186;-61
2022/07/03 01:49:00;;;;;;;3.38;1.30;;;;;;;;;;4936236;29;20179;-62
2022/07/03 01:51:26;;;;;;;1.77;1.27;;;;;;;;;;4953865;29;20191;-61
2022/07/03 01:53:53;;;;;;;2.80;1.65;;;;;;;;;;4954045;28;20266;-62
2022/07/03 01:56:20;;;;;;;2.33;1.50;;;;;;;;;;4938335;29;20266;-62
2022/07/03 01:58:46;;;;;;;2.88;1.40;;;;;;;;;;4944470;28;20197;-61
2022/07/03 02:01:12;;;;;;;3.55;1.30;;;;;;;;;;4939655;29;20183;-61
2022/07/03 02:03:41;;;;;;;3.67;1.33;;;;;;;;;;4940873;29;20218;-61
2022/07/03 02:06:12;;;;;;;2.67;1.33;;;;;;;;;;4940139;29;20547;-61
2022/07/03 02:08:41;;;;;;;3.72;1.38;;;;;;;;;;4955697;28;20261;-61
2022/07/03 02:11:18;;;;;;;3.38;1.20;;;;;;;;;;4957395;29;20241;-62
2022/07/03 02:13:53;;;;;;;6.68;1.27;;;;;;;;;;4924426;29;20214;-62
2022/07/03 02:16:20;;;;;;;3.90;1.20;;;;;;;;;;4956683;28;20238;-62
2022/07/03 02:18:50;;;;;;;2.90;1.08;;;;;;;;;;4924112;29;20277;-63
2022/07/03 02:21:19;;;;;;;3.45;1.20;;;;;;;;;;4954614;28;20198;-62
2022/07/03 02:23:51;;;;;;;3.80;1.10;;;;;;;;;;4957197;29;20178;-63
2022/07/03 02:26:17;;;;;;;7.10;1.30;;;;;;;;;;4957719;29;20273;-62
2022/07/03 02:29:02;;;;;;;2.42;1.20;;;;;;;;;;4957330;29;20194;-62
2022/07/03 02:31:32;;;;;;;6.20;1.38;;;;;;;;;;4953000;28;20195;-62
2022/07/03 02:33:59;;;;;;;4.15;1.20;;;;;;;;;;4957187;29;20222;-63
2022/07/03 02:36:29;;;;;;;4.10;1.10;;;;;;;;;;4940071;29;20550;-62
2022/07/03 02:38:56;;;;;;;4.82;1.45;;;;;;;;;;4956899;29;20179;-62
2022/07/03 02:41:25;;;;;;;2.22;1.10;;;;;;;;;;4955315;28;20182;-63
2022/07/03 02:44:00;;;;;;;4.60;1.30;;;;;;;;;;4956305;28;20194;-63
2022/07/03 02:46:48;;;;;;;2.63;1.17;;;;;;;;;;4956632;29;20194;-63
2022/07/03 02:49:34;;;;;;;3.28;1.40;;;;;;;;;;4956855;29;20179;-62
2022/07/03 02:52:00;;;;;;;5.30;1.17;;;;;;;;;;4954810;28;20322;-62
2022/07/03 02:54:26;;;;;;;4.90;1.20;;;;;;;;;;4939517;29;20221;-63
2022/07/03 02:57:09;;;;;;;5.20;1.17;;;;;;;;;;4956778;29;20585;-62
2022/07/03 02:59:54;;;;;;;3.90;1.30;;;;;;;;;;4939413;29;20245;-62
2022/07/03 03:02:23;;;;;;;4.72;1.20;;;;;;;;;;4954516;28;20183;-62
2022/07/03 03:04:52;;;;;;;5.78;1.38;;;;;;;;;;4956829;28;20277;-62
2022/07/03 03:07:19;;;;;;;4.68;1.30;;;;;;;;;;4946311;28;20329;-62
2022/07/03 03:09:46;;;;;;;2.83;1.10;;;;;;;;;;4939106;29;20242;-62
2022/07/03 03:12:13;;;;;;;5.10;1.30;;;;;;;;;;4954711;28;20681;-62
2022/07/03 03:14:40;;;;;;;5.03;1.33;;;;;;;;;;4939297;29;20716;-62
2022/07/03 03:17:07;;;;;;;4.75;1.30;;;;;;;;;;4939155;29;20262;-62
2022/07/03 03:19:37;;;;;;;4.50;1.67;;;;;;;;;;4956314;29;20786;-62
2022/07/03 03:22:09;;;;;;;3.78;1.23;;;;;;;;;;4956286;29;20190;-62
2022/07/03 03:24:35;;;;;;;5.65;1.58;;;;;;;;;;4954740;28;20285;-62
2022/07/03 03:27:01;;;;;;;6.15;1.55;;;;;;;;;;4955846;29;20194;-61
2022/07/03 03:29:28;;;;;;;10.00;1.73;;;;;;;;;;4955743;29;20186;-61
2022/07/03 03:31:54;;;;;;;5.53;1.50;;;;;;;;;;4954764;28;20281;-61
2022/07/03 03:34:22;;;;;;;5.47;1.50;;;;;;;;;;4937749;29;20651;-63
2022/07/03 03:36:48;;;;;;;4.22;1.48;;;;;;;;;;4954703;28;20661;-61
2022/07/03 03:39:15;;;;;;;6.45;1.55;;;;;;;;;;4955523;29;20232;-63
2022/07/03 03:41:41;;;;;;;10.60;1.52;;;;;;;;;;4938964;29;20179;-63
2022/07/03 03:44:07;;;;;;;6.60;1.40;;;;;;;;;;4955995;29;20187;-63
2022/07/03 03:46:33;;;;;;;6.40;1.60;;;;;;;;;;4953840;28;20182;-62
2022/07/03 03:49:00;;;;;;;12.48;2.17;;;;;;;;;;4955905;29;20234;-62
2022/07/03 03:51:26;;;;;;;6.53;1.63;;;;;;;;;;4956348;29;20269;-61
2022/07/03 03:53:52;;;;;;;6.35;1.80;;;;;;;;;;4955840;29;20241;-61
2022/07/03 03:56:18;;;;;;;8.02;1.50;;;;;;;;;;4938761;29;20191;-62
2022/07/03 03:58:44;;;;;;;11.20;1.65;;;;;;;;;;4935082;29;20215;-62
2022/07/03 04:01:11;;;;;;;9.52;1.55;;;;;;;;;;4940460;29;20183;-62
2022/07/03 04:03:40;;;;;;;7.57;1.50;;;;;;;;;;4956020;29;20206;-62
2022/07/03 04:06:06;;;;;;;5.97;1.50;;;;;;;;;;4956197;29;20183;-62
2022/07/03 04:08:32;;;;;;;4.68;1.50;;;;;;;;;;4937541;29;20187;-62
2022/07/03 04:10:59;;;;;;;6.93;1.90;;;;;;;;;;4956685;29;20234;-62
2022/07/03 04:13:25;;;;;;;7.40;1.70;;;;;;;;;;4956048;28;20308;-62
2022/07/03 04:15:52;;;;;;;5.25;1.50;;;;;;;;;;4956911;29;20202;-62
2022/07/03 04:18:19;;;;;;;3.83;1.30;;;;;;;;;;4955667;28;20217;-64
2022/07/03 04:20:45;;;;;;;8.10;2.10;;;;;;;;;;4957395;29;20277;-62
2022/07/03 04:23:11;;;;;;;4.95;1.42;;;;;;;;;;4958080;29;20191;-62
2022/07/03 04:25:37;;;;;;;7.22;1.73;;;;;;;;;;4940031;29;20190;-62
2022/07/03 04:28:04;;;;;;;10.52;1.55;;;;;;;;;;4946822;29;20203;-63
2022/07/03 04:30:30;;;;;;;5.05;1.80;;;;;;;;;;4955532;28;20190;-62
2022/07/03 04:32:56;;;;;;;7.18;1.92;;;;;;;;;;4939258;29;20253;-62
2022/07/03 04:35:22;;;;;;;7.68;1.90;;;;;;;;;;4955783;29;20185;-62
2022/07/03 04:37:48;;;;;;;8.23;1.80;;;;;;;;;;4953024;28;20285;-63
2022/07/03 04:40:15;;;;;;;12.25;2.20;;;;;;;;;;4954959;29;20629;-63
2022/07/03 04:42:41;;;;;;;10.98;2.00;;;;;;;;;;4955211;29;20190;-61
2022/07/03 04:45:08;;;;;;;12.18;2.00;;;;;;;;;;4955015;29;20537;-63
2022/07/03 04:47:34;;;;;;;14.02;2.40;;;;;;;;;;4922422;29;20183;-62
2022/07/03 04:50:00;;;;;;;10.43;2.05;;;;;;;;;;4954180;28;20229;-63
2022/07/03 04:52:26;;;;;;;12.65;2.40;;;;;;;;;;4956602;29;20214;-62
2022/07/03 04:54:52;;;;;;;11.80;2.30;;;;;;;;;;4938997;29;20246;-62
2022/07/03 04:57:18;;;;;;;11.50;1.83;;;;;;;;;;4955398;29;20183;-63
2022/07/03 04:59:46;;;;;;;11.15;2.10;;;;;;;;;;4954803;28;20187;-62
2022/07/03 05:02:12;;;;;;;9.95;2.10;;;;;;;;;;4937975;29;20214;-63
2022/07/03 05:04:39;;;;;;;12.63;2.47;;;;;;;;;;4922803;29;20237;-61
2022/07/03 05:07:05;;;;;;;7.85;2.08;;;;;;;;;;4938176;29;20264;-61
2022/07/03 05:09:31;;;;;;;10.95;2.20;;;;;;;;;;4937127;29;20631;-61
2022/07/03 05:11:57;;;;;;;13.57;2.30;;;;;;;;;;4934385;29;20318;-61
2022/07/03 05:14:23;;;;;;;7.80;2.15;;;;;;;;;;4919773;29;20710;-60
2022/07/03 05:16:49;;;;;;;15.45;2.58;;;;;;;;;;4935233;29;20210;-60
2022/07/03 05:19:15;;;;;;;12.52;2.50;;;;;;;;;;4934570;29;20187;-61
2022/07/03 05:21:42;;;;;;;9.88;2.20;;;;;;;;;;4935675;29;20194;-61
2022/07/03 05:24:08;;;;;;;13.15;2.65;;;;;;;;;;4935946;29;20385;-63
2022/07/03 05:26:34;;;;;;;8.32;2.15;;;;;;;;;;4934393;29;20242;-61
2022/07/03 05:29:00;;;;;;;13.15;2.17;;;;;;;;;;4934317;29;20194;-62
2022/07/03 05:31:26;;;;;;;12.38;2.33;;;;;;;;;;4939835;29;20230;-61
2022/07/03 05:33:52;;;;;;;13.98;2.45;;;;;;;;;;4938698;29;20619;-61
2022/07/03 05:36:18;;;;;;;13.95;2.42;;;;;;;;;;4939644;29;20189;-61
2022/07/03 05:41:29;;;;;;;8.02;2.03;;;;;;;;;;4925048;29;20639;-63
2022/07/03 05:43:57;;;;;;;13.35;2.60;;;;;;;;;;4939406;29;20597;-62
2022/07/03 05:46:23;;;;;;;11.35;2.80;;;;;;;;;;4938171;29;20286;-61
2022/07/03 05:48:49;;;;;;;16.45;3.30;;;;;;;;;;4939673;29;20190;-61
2022/07/03 05:51:15;;;;;;;11.48;2.63;;;;;;;;;;4937161;29;20199;-60
2022/07/03 05:53:41;;;;;;;12.10;2.67;;;;;;;;;;4939688;29;20766;-61
2022/07/03 05:56:07;;;;;;;15.43;2.97;;;;;;;;;;4939214;29;20674;-60
2022/07/03 05:58:34;;;;;;;9.95;2.33;;;;;;;;;;4939772;29;20675;-60
2022/07/03 06:01:00;;;;;;;8.57;2.60;;;;;;;;;;4941135;29;20250;-61
2022/07/03 06:03:26;;;;;;;7.55;2.45;;;;;;;;;;4939727;29;20183;-61
2022/07/03 06:05:52;;;;;;;9.43;2.78;;;;;;;;;;4940749;29;20666;-62
2022/07/03 06:08:18;;;;;;;9.68;2.22;;;;;;;;;;4939598;29;20235;-63
2022/07/03 06:10:45;;;;;;;9.10;2.30;;;;;;;;;;4945986;29;20316;-61
2022/07/03 06:13:11;;;;;;;13.60;2.63;;;;;;;;;;4954710;28;20218;-61
2022/07/03 06:15:37;;;;;;;11.77;2.35;;;;;;;;;;4921866;29;20672;-61
2022/07/03 06:18:03;;;;;;;9.15;2.17;;;;;;;;;;4940294;29;20186;-60
2022/07/03 06:20:29;;;;;;;13.18;2.45;;;;;;;;;;4950441;29;20194;-60
2022/07/03 06:22:55;;;;;;;10.93;2.47;;;;;;;;;;4938344;29;20195;-63
2022/07/03 06:25:21;;;;;;;11.98;2.38;;;;;;;;;;4932422;29;20634;-62
2022/07/03 06:27:47;;;;;;;8.68;2.00;;;;;;;;;;4957994;29;20285;-61
2022/07/03 06:30:14;;;;;;;10.10;2.08;;;;;;;;;;4940403;29;20643;-61
2022/07/03 06:32:40;;;;;;;13.52;2.70;;;;;;;;;;4954845;28;20683;-62
2022/07/03 06:35:06;;;;;;;9.68;2.40;;;;;;;;;;4923394;29;20226;-62
2022/07/03 06:37:32;;;;;;;8.88;2.15;;;;;;;;;;4957804;29;20813;-61
2022/07/03 06:39:58;;;;;;;15.20;2.58;;;;;;;;;;4955146;28;20639;-62
2022/07/03 06:42:25;;;;;;;11.63;2.55;;;;;;;;;;4939708;29;20183;-63
2022/07/03 06:44:51;;;;;;;11.18;2.25;;;;;;;;;;4941110;29;20243;-63
2022/07/03 06:47:17;;;;;;;11.75;2.10;;;;;;;;;;4956629;29;20179;-62
2022/07/03 06:49:43;;;;;;;9.27;2.80;;;;;;;;;;4939626;29;20178;-63
2022/07/03 06:52:11;;;;;;;9.68;2.30;;;;;;;;;;4938776;29;20655;-62
2022/07/03 06:54:43;;;;;;;9.60;2.28;;;;;;;;;;4956833;29;20222;-62
2022/07/03 06:57:10;;;;;;;14.95;2.67;;;;;;;;;;4957476;29;20182;-62
2022/07/03 06:59:36;;;;;;;9.48;2.15;;;;;;;;;;4939460;29;20193;-62
2022/07/03 07:02:02;;;;;;;11.55;2.47;;;;;;;;;;4954389;28;20190;-62
2022/07/03 07:04:28;;;;;;;10.15;2.38;;;;;;;;;;4939305;29;20245;-62
2022/07/03 07:06:55;;;;;;;10.70;2.08;;;;;;;;;;4957529;29;20190;-62
2022/07/03 07:09:21;;;;;;;12.65;2.00;;;;;;;;;;4939592;29;20191;-61
2022/07/03 07:11:47;;;;;;;8.25;2.45;;;;;;;;;;4957059;28;20842;-63
2022/07/03 07:14:13;;;;;;;12.65;2.40;;;;;;;;;;4941472;29;20218;-64
2022/07/03 07:16:39;;;;;;;9.65;2.55;;;;;;;;;;4958312;29;20179;-62
2022/07/03 07:19:06;;;;;;;8.48;1.92;;;;;;;;;;4958007;29;20190;-63
2022/07/03 07:21:32;;;;;;;8.10;2.08;;;;;;;;;;4958805;28;20187;-63
2022/07/03 07:23:58;;;;;;;12.55;2.53;;;;;;;;;;4926601;29;20191;-63
2022/07/03 07:26:25;;;;;;;6.60;2.05;;;;;;;;;;4959773;29;20185;-64
2022/07/03 07:28:51;;;;;;;9.18;2.13;;;;;;;;;;4940727;29;20210;-63
2022/07/03 07:31:17;;;;;;;8.98;2.22;;;;;;;;;;4958459;29;20285;-64
2022/07/03 07:33:43;;;;;;;9.20;2.20;;;;;;;;;;4957810;29;20222;-63
2022/07/03 07:36:10;;;;;;;6.50;1.90;;;;;;;;;;4954399;29;20197;-64
2022/07/03 07:38:36;;;;;;;8.63;2.15;;;;;;;;;;4928712;29;20225;-63
2022/07/03 07:41:02;;;;;;;10.20;2.10;;;;;;;;;;4955865;29;20614;-63
2022/07/03 07:43:28;;;;;;;8.95;2.10;;;;;;;;;;4955990;29;20183;-62
2022/07/03 07:45:55;;;;;;;7.45;1.80;;;;;;;;;;4922890;29;20198;-63
2022/07/03 07:48:21;;;;;;;5.47;2.15;;;;;;;;;;4938012;29;20618;-62
2022/07/03 07:50:49;;;;;;;4.60;1.73;;;;;;;;;;4955599;29;20658;-63
2022/07/03 07:53:15;;;;;;;5.18;2.08;;;;;;;;;;4955131;28;20244;-63
2022/07/03 07:55:41;;;;;;;4.35;1.40;;;;;;;;;;4956419;29;20643;-63
2022/07/03 07:58:08;;;;;;;4.25;1.75;;;;;;;;;;4954090;28;20201;-63
2022/07/03 08:00:34;;;;;;;7.88;2.45;;;;;;;;;;4938539;29;20250;-64
2022/07/03 08:05:47;;;;;;;5.40;2.10;;;;;;;;;;4955117;29;20187;-63
2022/07/03 08:08:16;;;;;;;3.90;1.80;;;;;;;;;;4954010;28;20281;-65
2022/07/03 08:10:43;;;;;;;6.18;1.90;;;;;;;;;;4954717;29;20309;-64
2022/07/03 08:13:10;;;;;;;6.68;1.67;;;;;;;;;;4937631;29;20202;-64
2022/07/03 08:15:36;;;;;;;4.25;1.85;;;;;;;;;;4954843;29;20565;-65
2022/07/03 08:18:04;;;;;;;6.55;1.73;;;;;;;;;;4935894;29;20188;-61
2022/07/03 08:20:31;;;;;;;4.93;1.90;;;;;;;;;;4938210;29;20186;-63
2022/07/03 08:22:57;;;;;;;4.10;1.60;;;;;;;;;;4955499;29;20234;-63
2022/07/03 08:25:24;;;;;;;4.82;1.73;;;;;;;;;;4955354;29;20215;-62
2022/07/03 08:27:50;;;;;;;4.80;2.03;;;;;;;;;;4952185;28;20186;-63
2022/07/03 08:30:20;;;;;;;5.88;2.08;;;;;;;;;;4922128;29;20587;-64
2022/07/03 08:32:46;;;;;;;4.30;1.70;;;;;;;;;;4938154;29;20199;-65
2022/07/03 08:35:13;;;;;;;3.72;1.63;;;;;;;;;;4954908;29;20223;-62
2022/07/03 08:37:43;;;;;;;3.67;1.60;;;;;;;;;;4953364;28;20186;-63
2022/07/03 08:40:10;;;;;;;3.33;1.20;;;;;;;;;;4954915;29;20718;-65
2022/07/03 08:42:44;;;;;;;3.33;1.27;;;;;;;;;;4954615;29;20214;-64
2022/07/03 08:45:15;;;;;;;3.38;1.65;;;;;;;;;;4955009;29;20189;-65
2022/07/03 08:47:42;;;;;;;6.25;1.42;;;;;;;;;;4937021;29;20238;-64
2022/07/03 08:50:08;;;;;;;3.80;1.60;;;;;;;;;;4954721;29;20181;-63
2022/07/03 08:52:35;;;;;;;3.53;1.30;;;;;;;;;;4954442;29;20262;-63
2022/07/03 08:55:02;;;;;;;4.93;1.60;;;;;;;;;;4953974;29;20210;-63
2022/07/03 08:57:31;;;;;;;5.50;1.30;;;;;;;;;;4952963;28;20175;-63
2022/07/03 08:59:57;;;;;;;3.03;1.83;;;;;;;;;;4952171;28;20189;-64
2022/07/03 09:02:24;;;;;;;6.65;1.33;;;;;;;;;;4952664;28;20182;-64
2022/07/03 09:04:50;;;;;;;3.05;1.27;;;;;;;;;;4935990;29;20281;-63
2022/07/03 09:07:19;;;;;;;2.97;1.20;;;;;;;;;;4941479;29;20227;-64
2022/07/03 09:09:45;;;;;;;5.78;2.28;;;;;;;;;;4950842;29;20241;-64
2022/07/03 09:12:11;;;;;;;3.28;1.63;;;;;;;;;;4949727;29;20187;-63
2022/07/03 09:14:37;;;;;;;8.23;4.75;;;;;;;;;;4939218;29;20233;-64
2022/07/03 09:17:07;;;;;;;2.90;1.30;;;;;;;;;;4951629;28;20222;-63
2022/07/03 09:19:43;;;;;;;2.55;1.10;;;;;;;;;;4957390;28;20194;-63
2022/07/03 09:22:29;;;;;;;2.17;0.85;;;;;;;;;;4953933;28;20654;-65
2022/07/03 09:25:04;;;;;;;1.98;0.90;;;;;;;;;;4957933;28;20194;-65
2022/07/03 09:27:30;;;;;;;2.67;1.10;;;;;;;;;;4958616;29;20178;-65
2022/07/03 09:30:07;;;;;;;2.28;1.10;;;;;;;;;;4941801;29;20178;-64
2022/07/03 09:32:39;;;;;;;2.63;1.00;;;;;;;;;;4954209;28;20756;-64
2022/07/03 09:35:19;;;;;;;3.60;1.20;;;;;;;;;;4955958;28;20218;-64
2022/07/03 09:38:02;;;;;;;2.67;1.00;;;;;;;;;;4958235;29;20201;-64
2022/07/03 09:40:50;;;;;;;3.75;1.20;;;;;;;;;;4951158;29;20178;-64
2022/07/03 09:43:22;;;;;;;4.57;1.10;;;;;;;;;;4947943;28;20226;-64
2022/07/03 09:45:51;;;;;;;2.97;1.02;;;;;;;;;;4957845;29;20177;-63
2022/07/03 09:48:24;;;;;;;1.17;0.73;;;;;;;;;;4957580;29;20269;-64
2022/07/03 09:51:08;;;;;;;1.55;0.85;;;;;;;;;;4957679;29;20658;-63
2022/07/03 09:54:06;;;;;;;2.25;0.90;;;;;;;;;;4956503;28;20249;-64
2022/07/03 09:56:37;;;;;;;1.60;0.80;;;;;;;;;;4909714;29;20201;-63
2022/07/03 09:59:04;;;;;;;1.70;0.95;;;;;;;;;;4940050;29;20185;-64
2022/07/03 10:01:31;;;;;;;1.88;1.02;;;;;;;;;;4957762;29;20186;-64
2022/07/03 10:04:10;;;;;;;2.50;0.85;;;;;;;;;;4939559;28;20213;-64
2022/07/03 10:06:49;;;;;;;3.45;1.00;;;;;;;;;;4939792;29;20633;-64
2022/07/03 10:09:16;;;;;;;2.47;1.00;;;;;;;;;;4956504;29;20182;-64
2022/07/03 10:11:44;;;;;;;2.25;0.90;;;;;;;;;;4953276;29;20223;-64
2022/07/03 10:14:15;;;;;;;3.28;0.60;;;;;;;;;;4939032;29;20229;-64
2022/07/03 10:16:42;;;;;;;4.88;1.20;;;;;;;;;;4957160;28;20270;-63
2022/07/03 10:19:12;;;;;;;2.17;0.77;;;;;;;;;;4940382;29;20699;-63
2022/07/03 10:21:39;;;;;;;3.90;1.05;;;;;;;;;;4957440;29;20174;-63
2022/07/03 10:24:05;;;;;;;1.48;0.90;;;;;;;;;;4937954;29;20197;-64
2022/07/03 10:26:32;;;;;;;5.30;1.02;;;;;;;;;;4956427;28;20689;-63
2022/07/03 10:28:59;;;;;;;2.72;1.02;;;;;;;;;;4956892;29;20209;-63
2022/07/03 10:31:26;;;;;;;2.45;1.20;;;;;;;;;;4957537;29;20185;-63
2022/07/03 10:33:57;;;;;;;2.88;1.30;;;;;;;;;;4923754;29;20701;-63
2022/07/03 10:36:24;;;;;;;2.92;1.00;;;;;;;;;;4939427;29;20182;-63
2022/07/03 10:38:52;;;;;;;1.13;0.95;;;;;;;;;;4923530;29;20556;-63
2022/07/03 10:46:59;;;;;;;4.05;0.95;;;;;;;;;;4956469;28;20192;-64
2022/07/03 10:49:25;;;;;;;4.90;1.00;;;;;;;;;;4957448;29;20175;-64
2022/07/03 10:51:53;;;;;;;2.00;0.75;;;;;;;;;;4939168;29;20325;-64
2022/07/03 10:54:21;;;;;;;4.97;1.15;;;;;;;;;;4938206;28;20229;-66
2022/07/03 10:57:02;;;;;;;1.98;0.93;;;;;;;;;;4935815;29;20564;-65
2022/07/03 10:59:40;;;;;;;1.95;0.85;;;;;;;;;;4925855;29;20183;-64
2022/07/03 11:02:23;;;;;;;2.42;1.00;;;;;;;;;;4938388;29;20270;-65
2022/07/03 11:04:59;;;;;;;1.70;0.90;;;;;;;;;;4921261;29;20246;-65
2022/07/03 11:07:25;;;;;;;4.35;0.90;;;;;;;;;;4937670;29;20179;-64
2022/07/03 11:10:10;;;;;;;3.15;0.80;;;;;;;;;;4939133;29;20168;-64
2022/07/03 11:12:55;;;;;;;2.88;0.90;;;;;;;;;;4951403;28;20190;-65
2022/07/03 11:15:28;;;;;;;3.42;1.00;;;;;;;;;;4954762;28;20198;-66
2022/07/03 11:18:07;;;;;;;3.92;0.93;;;;;;;;;;4951588;29;20236;-64
2022/07/03 11:20:33;;;;;;;1.65;0.75;;;;;;;;;;4955988;29;20650;-66
2022/07/03 11:23:05;;;;;;;2.70;0.75;;;;;;;;;;4955966;29;20185;-66
2022/07/03 11:25:41;;;;;;;4.28;0.90;;;;;;;;;;4956053;29;20189;-63
2022/07/03 11:28:07;;;;;;;1.83;1.10;;;;;;;;;;4955429;28;20531;-65
2022/07/03 11:30:34;;;;;;;4.97;1.20;;;;;;;;;;4952662;29;20214;-64
2022/07/03 11:33:00;;;;;;;2.45;0.90;;;;;;;;;;4943173;28;20682;-64
2022/07/03 11:35:48;;;;;;;1.33;0.95;;;;;;;;;;4956377;29;20659;-65
2022/07/03 11:38:21;;;;;;;2.38;1.00;;;;;;;;;;4923258;29;20646;-65
2022/07/03 11:40:49;;;;;;;2.97;1.17;;;;;;;;;;4955727;28;20193;-64
2022/07/03 11:43:15;;;;;;;3.20;0.80;;;;;;;;;;4939554;29;20186;-65
2022/07/03 11:45:41;;;;;;;2.17;0.90;;;;;;;;;;4938867;29;20559;-64
2022/07/03 11:48:18;;;;;;;2.97;1.10;;;;;;;;;;4956319;29;20249;-62
2022/07/03 11:50:45;;;;;;;6.70;0.90;;;;;;;;;;4935450;29;20237;-65
2022/07/03 11:53:28;;;;;;;1.92;1.00;;;;;;;;;;4955558;29;20241;-65
2022/07/03 11:56:05;;;;;;;3.65;1.20;;;;;;;;;;4939041;29;20189;-66
2022/07/03 11:58:58;;;;;;;1.52;0.90;;;;;;;;;;4938675;29;20182;-63
2022/07/03 12:01:27;;;;;;;2.72;0.82;;;;;;;;;;4934083;29;20198;-65
2022/07/03 12:03:54;;;;;;;5.05;1.00;;;;;;;;;;4936585;29;20187;-64
2022/07/03 12:06:21;;;;;;;2.88;0.85;;;;;;;;;;4924017;29;20669;-64
2022/07/03 12:08:47;;;;;;;2.42;0.90;;;;;;;;;;4954638;29;20183;-66
2022/07/03 12:11:15;;;;;;;1.70;0.90;;;;;;;;;;4921175;29;20254;-65
2022/07/03 12:13:43;;;;;;;2.25;0.98;;;;;;;;;;4938460;29;20230;-63
2022/07/03 12:16:11;;;;;;;2.92;1.13;;;;;;;;;;4955420;29;20187;-63
2022/07/03 12:18:44;;;;;;;2.55;0.82;;;;;;;;;;4955306;29;20193;-64
2022/07/03 12:21:11;;;;;;;2.28;0.98;;;;;;;;;;4935994;29;20659;-62
2022/07/03 12:23:56;;;;;;;3.50;1.05;;;;;;;;;;4942663;29;20634;-63
2022/07/03 12:26:32;;;;;;;2.53;1.00;;;;;;;;;;4938163;29;20266;-64
2022/07/03 12:28:59;;;;;;;3.00;0.95;;;;;;;;;;4954173;29;20547;-64
2022/07/03 12:31:26;;;;;;;2.20;0.80;;;;;;;;;;4938693;29;20191;-64
2022/07/03 12:33:53;;;;;;;6.80;1.20;;;;;;;;;;4926213;29;20214;-64
2022/07/03 12:36:19;;;;;;;3.30;0.80;;;;;;;;;;4937697;29;20186;-62
2022/07/03 12:38:59;;;;;;;3.47;1.02;;;;;;;;;;4951834;28;20202;-62
2022/07/03 12:41:26;;;;;;;1.98;0.70;;;;;;;;;;4953898;28;20194;-64
2022/07/03 12:43:52;;;;;;;3.10;1.10;;;;;;;;;;4954853;29;20185;-65
2022/07/03 12:46:23;;;;;;;5.15;1.02;;;;;;;;;;4954876;29;20709;-65
2022/07/03 12:48:50;;;;;;;5.47;1.10;;;;;;;;;;4952720;28;20203;-62
2022/07/03 12:51:17;;;;;;;4.07;0.73;;;;;;;;;;4937960;29;20605;-64
2022/07/03 12:53:43;;;;;;;4.22;1.02;;;;;;;;;;4936639;29;20276;-64
2022/07/03 12:56:11;;;;;;;3.83;1.13;;;;;;;;;;4954986;29;20190;-64
2022/07/03 13:01:42;;;;;;;5.20;1.05;;;;;;;;;;4954648;29;20194;-62
2022/07/03 13:04:09;;;;;;;3.75;1.10;;;;;;;;;;4954750;29;20662;-64
2022/07/03 13:06:35;;;;;;;3.95;1.10;;;;;;;;;;4936947;29;20570;-64
2022/07/03 13:09:03;;;;;;;2.80;1.10;;;;;;;;;;4952460;28;20552;-63
2022/07/03 13:11:29;;;;;;;1.90;1.10;;;;;;;;;;4952523;28;20261;-62
2022/07/03 13:14:02;;;;;;;5.57;1.35;;;;;;;;;;4921653;29;20222;-63
2022/07/03 13:16:29;;;;;;;3.22;1.20;;;;;;;;;;4953530;29;20182;-63
2022/07/03 13:19:02;;;;;;;7.07;1.40;;;;;;;;;;4952813;28;20187;-62
2022/07/03 13:21:28;;;;;;;6.13;1.17;;;;;;;;;;4935586;29;20262;-62
2022/07/03 13:23:56;;;;;;;2.38;1.33;;;;;;;;;;4952740;28;20217;-63
2022/07/03 13:26:22;;;;;;;7.47;1.17;;;;;;;;;;4952614;28;20201;-65
2022/07/03 13:28:48;;;;;;;2.58;1.30;;;;;;;;;;4934711;29;20183;-63
2022/07/03 13:31:15;;;;;;;3.42;1.25;;;;;;;;;;4954271;29;20191;-64
2022/07/03 13:33:41;;;;;;;3.63;1.40;;;;;;;;;;4954564;29;20269;-64
2022/07/03 13:36:07;;;;;;;6.00;1.65;;;;;;;;;;4951916;28;20241;-63
2022/07/03 13:38:33;;;;;;;3.58;1.33;;;;;;;;;;4953581;29;20194;-63
2022/07/03 13:40:59;;;;;;;5.75;1.88;;;;;;;;;;4936228;29;20609;-64
2022/07/03 13:43:25;;;;;;;6.13;1.63;;;;;;;;;;4954377;29;20182;-64
2022/07/03 13:45:51;;;;;;;3.25;1.40;;;;;;;;;;4953981;28;20606;-65
2022/07/03 13:48:18;;;;;;;3.83;1.65;;;;;;;;;;4936747;29;20186;-62
2022/07/03 13:50:46;;;;;;;4.55;1.52;;;;;;;;;;4953958;28;20705;-63
2022/07/03 13:53:13;;;;;;;6.43;2.17;;;;;;;;;;4956106;29;20254;-64
2022/07/03 13:55:40;;;;;;;9.10;1.80;;;;;;;;;;4957423;28;20213;-64
2022/07/03 13:58:07;;;;;;;4.82;1.60;;;;;;;;;;4957716;29;20187;-63
2022/07/03 14:00:34;;;;;;;4.10;1.83;;;;;;;;;;4949697;29;20199;-62
2022/07/03 14:03:01;;;;;;;3.05;1.70;;;;;;;;;;4940469;29;20681;-62
2022/07/03 14:05:27;;;;;;;9.70;2.10;;;;;;;;;;4956700;28;20198;-63
2022/07/03 14:07:54;;;;;;;4.55;1.85;;;;;;;;;;4956451;29;20671;-64
2022/07/03 14:10:21;;;;;;;7.32;2.20;;;;;;;;;;4939786;29;20717;-63
2022/07/03 14:12:48;;;;;;;6.05;2.00;;;;;;;;;;4958058;29;20191;-64
2022/07/03 14:15:14;;;;;;;4.15;1.98;;;;;;;;;;4939602;29;20225;-66
2022/07/03 14:17:43;;;;;;;4.68;2.08;;;;;;;;;;4940460;29;20308;-63
2022/07/03 14:20:09;;;;;;;8.57;2.00;;;;;;;;;;4940801;29;20610;-64
2022/07/03 14:22:35;;;;;;;7.47;2.08;;;;;;;;;;4956836;29;20198;-62
2022/07/03 14:25:02;;;;;;;3.53;1.60;;;;;;;;;;4956134;28;20179;-63
2022/07/03 14:32:58;;;;;;;3.13;1.77;;;;;;;;;;4957260;29;20186;-65
2022/07/03 14:35:26;;;;;;;6.78;2.40;;;;;;;;;;4939309;29;20218;-64
2022/07/03 14:37:52;;;;;;;7.75;2.03;;;;;;;;;;4939108;29;20187;-63
2022/07/03 14:40:18;;;;;;;4.97;2.65;;;;;;;;;;4953783;29;20178;-64
2022/07/03 14:42:44;;;;;;;10.93;2.70;;;;;;;;;;4907976;29;20193;-64
2022/07/03 14:45:10;;;;;;;8.70;1.90;;;;;;;;;;4938632;29;20194;-64
2022/07/03 14:47:37;;;;;;;4.70;1.98;;;;;;;;;;4938832;29;20179;-65
2022/07/03 14:50:03;;;;;;;7.68;2.00;;;;;;;;;;4957242;29;20557;-62
2022/07/03 14:52:29;;;;;;;6.00;1.80;;;;;;;;;;4952574;28;20651;-61
2022/07/03 14:54:57;;;;;;;5.30;1.70;;;;;;;;;;4956535;29;20794;-62
2022/07/03 14:57:41;;;;;;;2.92;1.67;;;;;;;;;;4934513;29;20215;-61
2022/07/03 15:00:07;;;;;;;5.05;2.05;;;;;;;;;;4937440;29;20195;-63
2022/07/03 15:02:42;;;;;;;5.85;1.77;;;;;;;;;;4919344;29;20199;-62
2022/07/03 15:05:09;;;;;;;4.32;1.73;;;;;;;;;;4937356;29;20178;-62
2022/07/03 15:07:43;;;;;;;5.55;1.80;;;;;;;;;;4937411;29;20175;-62
2022/07/03 15:10:15;;;;;;;3.28;1.52;;;;;;;;;;4936439;29;20226;-63